createdAt,value
2018-03-18T00:00:22.221Z,-4.90
2018-03-18T00:02:49.751Z,-4.90
2018-03-18T00:05:17.328Z,-4.90
2018-03-18T00:07:44.855Z,-4.90
2018-03-18T00:10:13.179Z,-5.00
2018-03-18T00:12:40.712Z,-5.00
2018-03-18T00:15:08.264Z,-5.00
2018-03-18T00:17:35.812Z,-5.00
2018-03-18T00:20:04.108Z,-5.00
2018-03-18T00:22:32.424Z,-5.00
2018-03-18T00:25:00.722Z,-5.00
2018-03-18T00:27:29.039Z,-5.00
2018-03-18T00:29:56.589Z,-5.00
2018-03-18T00:32:24.136Z,-5.00
2018-03-18T00:34:51.676Z,-5.00
2018-03-18T00:37:19.987Z,-5.00
2018-03-18T00:39:48.283Z,-5.00
2018-03-18T00:42:16.628Z,-5.00
2018-03-18T00:44:44.159Z,-5.00
2018-03-18T00:47:12.492Z,-5.00
2018-03-18T00:49:40.026Z,-5.10
2018-03-18T00:52:07.576Z,-5.10
2018-03-18T00:54:35.124Z,-5.10
2018-03-18T00:57:03.415Z,-5.10
2018-03-18T00:59:31.772Z,-5.10
2018-03-18T01:01:59.318Z,-5.10
2018-03-18T01:04:27.643Z,-5.20
2018-03-18T01:06:55.176Z,-5.20
2018-03-18T01:09:22.732Z,-5.20
2018-03-18T01:11:50.263Z,-5.20
2018-03-18T01:14:18.575Z,-5.20
2018-03-18T01:16:46.872Z,-5.20
2018-03-18T01:19:15.184Z,-5.20
2018-03-18T01:21:43.476Z,-5.30
2018-03-18T01:24:11.792Z,-5.30
2018-03-18T01:26:39.318Z,-5.30
2018-03-18T01:29:06.856Z,-5.30
2018-03-18T01:31:35.172Z,-5.30
2018-03-18T01:34:02.708Z,-5.30
2018-03-18T01:36:30.256Z,-5.30
2018-03-18T01:38:57.791Z,-5.30
2018-03-18T01:41:25.339Z,-5.30
2018-03-18T01:43:52.868Z,-5.30
2018-03-18T01:46:21.188Z,-5.40
2018-03-18T01:48:48.720Z,-5.40
2018-03-18T01:51:16.292Z,-5.40
2018-03-18T01:53:43.816Z,-5.40
2018-03-18T01:56:12.111Z,-5.40
2018-03-18T01:58:39.659Z,-5.40
2018-03-18T02:01:07.241Z,-5.40
2018-03-18T02:03:34.792Z,-5.40
2018-03-18T02:06:03.088Z,-5.50
2018-03-18T02:08:31.404Z,-5.50
2018-03-18T02:10:59.699Z,-5.50
2018-03-18T02:13:28.017Z,-5.50
2018-03-18T02:15:55.548Z,-5.50
2018-03-18T02:18:23.107Z,-5.50
2018-03-18T02:20:50.646Z,-5.50
2018-03-18T02:23:18.212Z,-5.50
2018-03-18T02:25:45.743Z,-5.60
2018-03-18T02:28:15.056Z,-5.60
2018-03-18T02:30:43.372Z,-5.60
2018-03-18T02:33:10.915Z,-5.60
2018-03-18T02:35:38.467Z,-5.50
2018-03-18T02:38:05.998Z,-5.60
2018-03-18T02:40:33.545Z,-5.60
2018-03-18T02:43:01.071Z,-5.60
2018-03-18T02:45:28.612Z,-5.60
2018-03-18T02:47:56.151Z,-5.60
2018-03-18T02:50:24.472Z,-5.60
2018-03-18T02:52:52.767Z,-5.70
2018-03-18T02:55:21.060Z,-5.70
2018-03-18T02:57:48.608Z,-5.70
2018-03-18T03:00:16.142Z,-5.70
2018-03-18T03:02:44.464Z,-5.70
2018-03-18T03:05:11.995Z,-5.70
2018-03-18T03:07:39.548Z,-5.70
2018-03-18T03:10:07.085Z,-5.70
2018-03-18T03:12:34.631Z,-5.70
2018-03-18T03:15:02.158Z,-5.70
2018-03-18T03:17:29.708Z,-5.70
2018-03-18T03:19:57.241Z,-5.80
2018-03-18T03:22:24.788Z,-5.70
2018-03-18T03:27:27.004Z,-5.80
2018-03-18T03:29:55.305Z,-5.80
2018-03-18T03:32:23.625Z,-5.80
2018-03-18T03:34:51.160Z,-5.80
2018-03-18T03:37:18.684Z,-5.80
2018-03-18T03:39:47.000Z,-5.80
2018-03-18T03:42:14.535Z,-5.80
2018-03-18T03:44:42.095Z,-5.80
2018-03-18T03:47:09.623Z,-5.80
2018-03-18T03:49:37.172Z,-5.80
2018-03-18T03:52:04.703Z,-5.80
2018-03-18T03:54:33.027Z,-5.90
2018-03-18T03:57:00.574Z,-5.90
2018-03-18T03:59:28.124Z,-5.90
2018-03-18T04:01:55.656Z,-5.80
2018-03-18T04:04:23.208Z,-5.80
2018-03-18T04:06:50.735Z,-5.90
2018-03-18T04:09:18.320Z,-5.90
2018-03-18T04:11:45.856Z,-5.90
2018-03-18T04:14:13.391Z,-5.90
2018-03-18T04:16:40.939Z,-5.90
2018-03-18T04:19:08.462Z,-5.90
2018-03-18T04:21:36.015Z,-5.90
2018-03-18T04:24:03.551Z,-5.90
2018-03-18T04:26:31.865Z,-5.90
2018-03-18T04:29:00.224Z,-5.90
2018-03-18T04:31:27.770Z,-5.90
2018-03-18T04:33:55.341Z,-5.90
2018-03-18T04:36:22.879Z,-5.90
2018-03-18T04:38:50.422Z,-5.90
2018-03-18T04:41:18.767Z,-6.00
2018-03-18T04:43:46.294Z,-6.00
2018-03-18T04:46:13.856Z,-6.00
2018-03-18T04:48:41.399Z,-6.00
2018-03-18T04:51:08.943Z,-6.00
2018-03-18T04:53:36.487Z,-6.00
2018-03-18T04:56:04.015Z,-6.00
2018-03-18T04:58:31.564Z,-6.00
2018-03-18T05:00:59.097Z,-6.00
2018-03-18T05:03:26.667Z,-6.00
2018-03-18T05:05:54.191Z,-6.10
2018-03-18T05:08:22.487Z,-6.10
2018-03-18T05:10:50.822Z,-6.00
2018-03-18T05:13:18.360Z,-6.00
2018-03-18T05:15:46.902Z,-6.10
2018-03-18T05:18:14.440Z,-6.10
2018-03-18T05:20:41.983Z,-6.00
2018-03-18T05:23:09.508Z,-6.00
2018-03-18T05:25:37.055Z,-6.00
2018-03-18T05:28:04.593Z,-6.00
2018-03-18T05:30:32.153Z,-6.00
2018-03-18T05:32:59.695Z,-6.00
2018-03-18T05:35:27.247Z,-6.00
2018-03-18T05:37:54.779Z,-6.00
2018-03-18T05:40:22.308Z,-6.00
2018-03-18T05:42:49.859Z,-5.90
2018-03-18T05:45:17.396Z,-6.00
2018-03-18T05:47:44.943Z,-5.90
2018-03-18T05:50:12.475Z,-5.90
2018-03-18T05:52:40.036Z,-5.90
2018-03-18T05:55:07.576Z,-5.80
2018-03-18T05:57:35.122Z,-5.80
2018-03-18T06:00:02.651Z,-5.80
2018-03-18T06:02:30.188Z,-5.80
2018-03-18T06:04:57.727Z,-5.80
2018-03-18T06:07:25.256Z,-5.70
2018-03-18T06:09:52.804Z,-5.70
2018-03-18T06:12:20.340Z,-5.50
2018-03-18T06:14:47.904Z,-5.10
2018-03-18T06:17:15.441Z,-4.50
2018-03-18T06:19:43.764Z,-4.10
2018-03-18T06:22:11.292Z,-4.10
2018-03-18T06:24:38.845Z,-3.90
2018-03-18T06:27:06.371Z,-3.80
2018-03-18T06:29:33.928Z,-3.80
2018-03-18T06:32:01.468Z,-3.60
2018-03-18T06:34:28.999Z,-3.80
2018-03-18T06:36:56.549Z,-3.60
2018-03-18T06:39:24.852Z,-3.90
2018-03-18T06:41:53.173Z,-3.90
2018-03-18T06:44:20.704Z,-3.90
2018-03-18T06:46:48.320Z,-3.80
2018-03-18T06:49:16.620Z,-3.80
2018-03-18T06:51:44.183Z,-3.80
2018-03-18T06:54:11.721Z,-3.60
2018-03-18T06:56:39.271Z,-3.70
2018-03-18T06:59:06.815Z,-3.70
2018-03-18T07:01:34.380Z,-3.60
2018-03-18T07:04:02.692Z,-3.20
2018-03-18T07:06:30.220Z,-3.20
2018-03-18T07:08:57.777Z,-3.30
2018-03-18T07:11:25.309Z,-3.40
2018-03-18T07:13:52.865Z,-3.70
2018-03-18T07:16:20.399Z,-3.70
2018-03-18T07:18:48.746Z,-3.60
2018-03-18T07:21:16.304Z,-3.70
2018-03-18T07:23:44.615Z,-3.40
2018-03-18T07:26:12.945Z,-3.40
2018-03-18T07:28:40.479Z,-3.40
2018-03-18T07:31:08.027Z,-3.50
2018-03-18T07:33:35.565Z,-3.70
2018-03-18T07:36:03.121Z,-3.30
2018-03-18T07:38:30.663Z,-3.30
2018-03-18T07:40:58.238Z,-3.20
2018-03-18T07:43:26.552Z,-3.10
2018-03-18T07:45:54.870Z,-2.90
2018-03-18T07:48:22.408Z,-2.90
2018-03-18T07:50:49.960Z,-2.60
2018-03-18T07:53:17.545Z,-2.70
2018-03-18T07:55:45.116Z,-2.80
2018-03-18T07:58:12.652Z,-2.80
2018-03-18T08:00:40.284Z,-2.90
2018-03-18T08:03:07.832Z,-2.80
2018-03-18T08:05:35.367Z,-2.60
2018-03-18T08:08:02.921Z,-2.50
2018-03-18T08:10:30.456Z,-2.20
2018-03-18T08:12:58.008Z,-2.10
2018-03-18T08:15:25.560Z,-2.00
2018-03-18T08:17:53.155Z,-2.20
2018-03-18T08:20:20.688Z,-2.20
2018-03-18T08:22:48.222Z,-2.30
2018-03-18T08:25:15.771Z,-2.30
2018-03-18T08:27:43.300Z,-2.20
2018-03-18T08:30:10.858Z,-2.10
2018-03-18T08:32:38.404Z,-2.00
2018-03-18T08:35:06.412Z,-1.70
2018-03-18T08:37:33.975Z,-1.50
2018-03-18T08:40:01.564Z,-1.70
2018-03-18T08:42:29.932Z,-1.80
2018-03-18T08:44:58.273Z,-1.80
2018-03-18T08:47:25.813Z,-1.80
2018-03-18T08:49:53.371Z,-1.90
2018-03-18T08:52:20.967Z,-1.90
2018-03-18T08:54:48.476Z,-1.70
2018-03-18T08:57:16.041Z,-1.40
2018-03-18T08:59:44.361Z,-1.30
2018-03-18T09:02:11.925Z,-1.40
2018-03-18T09:04:39.459Z,-1.40
2018-03-18T09:07:07.048Z,-1.30
2018-03-18T09:09:34.605Z,-1.20
2018-03-18T09:12:02.927Z,-1.20
2018-03-18T09:14:30.477Z,-1.20
2018-03-18T09:16:58.801Z,-1.20
2018-03-18T09:19:26.345Z,-1.20
2018-03-18T09:21:53.913Z,-1.20
2018-03-18T09:24:21.481Z,-1.30
2018-03-18T09:26:49.048Z,-1.20
2018-03-18T09:29:16.604Z,-1.20
2018-03-18T09:31:44.933Z,-0.90
2018-03-18T09:34:12.478Z,-0.90
2018-03-18T09:36:40.021Z,-0.80
2018-03-18T09:39:07.690Z,-0.60
2018-03-18T09:41:35.231Z,-0.40
2018-03-18T09:44:02.785Z,-0.60
2018-03-18T09:46:30.316Z,-0.60
2018-03-18T09:48:57.869Z,-0.60
2018-03-18T09:51:26.166Z,-0.70
2018-03-18T09:53:53.824Z,-0.80
2018-03-18T09:56:21.395Z,-0.60
2018-03-18T09:58:48.962Z,-0.50
2018-03-18T10:01:16.509Z,-0.30
2018-03-18T10:03:44.208Z,0.00
2018-03-18T10:06:11.786Z,0.20
2018-03-18T10:08:39.344Z,0.20
2018-03-18T10:11:06.882Z,0.10
2018-03-18T10:13:34.448Z,0.20
2018-03-18T10:16:01.975Z,0.20
2018-03-18T10:18:30.289Z,0.00
2018-03-18T10:20:58.602Z,-0.20
2018-03-18T10:23:26.144Z,-0.20
2018-03-18T10:25:53.687Z,0.10
2018-03-18T10:28:21.216Z,0.00
2018-03-18T10:30:48.763Z,-0.20
2018-03-18T10:33:16.299Z,0.10
2018-03-18T10:35:44.611Z,0.30
2018-03-18T10:38:12.148Z,0.30
2018-03-18T10:40:39.695Z,0.20
2018-03-18T10:43:07.230Z,0.30
2018-03-18T10:45:34.784Z,0.30
2018-03-18T10:48:02.334Z,0.10
2018-03-18T10:50:29.884Z,0.30
2018-03-18T10:52:57.434Z,0.40
2018-03-18T10:55:24.987Z,0.50
2018-03-18T10:57:52.534Z,0.70
2018-03-18T11:00:21.000Z,0.50
2018-03-18T11:02:49.904Z,0.40
2018-03-18T11:05:17.452Z,0.30
2018-03-18T11:07:45.757Z,0.50
2018-03-18T11:10:14.085Z,0.40
2018-03-18T11:12:41.628Z,0.40
2018-03-18T11:15:09.239Z,0.50
2018-03-18T11:17:36.741Z,0.50
2018-03-18T11:20:04.296Z,0.60
2018-03-18T11:22:32.602Z,0.50
2018-03-18T11:25:00.924Z,0.50
2018-03-18T11:27:28.464Z,0.50
2018-03-18T11:29:56.008Z,0.60
2018-03-18T11:32:23.569Z,0.60
2018-03-18T11:34:51.117Z,0.60
2018-03-18T11:37:18.673Z,0.80
2018-03-18T11:39:47.144Z,0.90
2018-03-18T11:42:14.713Z,1.00
2018-03-18T11:44:43.022Z,1.10
2018-03-18T11:47:11.340Z,1.00
2018-03-18T11:49:38.883Z,1.00
2018-03-18T11:52:06.442Z,1.00
2018-03-18T11:54:33.998Z,0.80
2018-03-18T11:57:01.569Z,1.00
2018-03-18T11:59:29.133Z,1.30
2018-03-18T12:01:56.702Z,1.40
2018-03-18T12:04:25.019Z,1.50
2018-03-18T12:06:52.580Z,1.50
2018-03-18T12:09:20.880Z,1.30
2018-03-18T12:11:49.193Z,1.20
2018-03-18T12:14:17.018Z,1.20
2018-03-18T12:16:44.593Z,1.20
2018-03-18T12:19:12.128Z,1.40
2018-03-18T12:21:39.704Z,1.50
2018-03-18T12:24:07.238Z,1.60
2018-03-18T12:26:34.779Z,1.70
2018-03-18T12:29:02.342Z,2.00
2018-03-18T12:31:29.887Z,1.80
2018-03-18T12:33:57.442Z,1.50
2018-03-18T12:36:24.979Z,1.50
2018-03-18T12:38:52.529Z,1.60
2018-03-18T12:41:20.076Z,1.80
2018-03-18T12:43:47.633Z,1.90
2018-03-18T12:46:15.169Z,1.90
2018-03-18T12:48:42.729Z,2.00
2018-03-18T12:51:10.273Z,1.70
2018-03-18T12:53:37.834Z,1.70
2018-03-18T12:56:05.372Z,1.70
2018-03-18T12:58:32.927Z,1.60
2018-03-18T13:01:00.468Z,1.50
2018-03-18T13:03:28.045Z,1.50
2018-03-18T13:05:55.620Z,1.50
2018-03-18T13:08:23.152Z,1.70
2018-03-18T13:10:50.693Z,1.60
2018-03-18T13:13:18.254Z,1.80
2018-03-18T13:15:45.794Z,2.00
2018-03-18T13:18:13.352Z,2.10
2018-03-18T13:20:40.898Z,2.00
2018-03-18T13:23:08.446Z,1.90
2018-03-18T13:25:36.002Z,2.00
2018-03-18T13:28:03.547Z,2.10
2018-03-18T13:30:31.109Z,3.40
2018-03-18T13:32:58.646Z,1.80
2018-03-18T13:35:26.200Z,1.80
2018-03-18T13:37:54.494Z,1.90
2018-03-18T13:40:22.810Z,2.00
2018-03-18T13:42:50.345Z,2.00
2018-03-18T13:45:17.907Z,2.00
2018-03-18T13:47:45.439Z,2.00
2018-03-18T13:50:12.994Z,2.10
2018-03-18T13:52:40.539Z,1.90
2018-03-18T13:55:08.868Z,1.40
2018-03-18T13:57:36.418Z,1.40
2018-03-18T14:00:04.794Z,1.50
2018-03-18T14:02:32.320Z,1.50
2018-03-18T14:05:00.632Z,1.70
2018-03-18T14:07:28.187Z,1.70
2018-03-18T14:09:56.516Z,1.80
2018-03-18T14:12:24.062Z,1.80
2018-03-18T14:14:51.606Z,1.60
2018-03-18T14:17:19.158Z,1.50
2018-03-18T14:19:47.465Z,1.60
2018-03-18T14:22:15.043Z,1.60
2018-03-18T14:24:42.590Z,1.60
2018-03-18T14:27:10.157Z,1.60
2018-03-18T14:29:37.699Z,1.70
2018-03-18T14:32:05.252Z,1.70
2018-03-18T14:34:32.803Z,1.60
2018-03-18T14:37:00.369Z,0.00
2018-03-18T14:39:27.913Z,1.80
2018-03-18T14:41:55.474Z,1.80
2018-03-18T14:44:23.013Z,1.70
2018-03-18T14:46:51.329Z,1.70
2018-03-18T14:49:18.967Z,1.70
2018-03-18T14:51:46.527Z,1.50
2018-03-18T14:54:14.062Z,1.40
2018-03-18T14:56:42.390Z,1.30
2018-03-18T14:59:09.925Z,1.30
2018-03-18T15:01:37.477Z,1.20
2018-03-18T15:04:05.008Z,1.20
2018-03-18T15:06:32.575Z,1.20
2018-03-18T15:09:00.134Z,0.70
2018-03-18T15:11:27.692Z,1.10
2018-03-18T15:13:56.000Z,1.00
2018-03-18T15:16:24.317Z,0.90
2018-03-18T15:18:51.861Z,0.90
2018-03-18T15:21:19.409Z,0.90
2018-03-18T15:23:47.740Z,1.00
2018-03-18T15:26:16.042Z,1.00
2018-03-18T15:28:43.597Z,1.00
2018-03-18T15:31:11.899Z,1.10
2018-03-18T15:33:39.452Z,1.10
2018-03-18T15:36:06.993Z,1.20
2018-03-18T15:38:34.544Z,1.00
2018-03-18T15:41:02.915Z,0.90
2018-03-18T15:43:30.448Z,0.80
2018-03-18T15:45:58.762Z,0.80
2018-03-18T15:48:27.080Z,0.70
2018-03-18T15:50:54.650Z,0.70
2018-03-18T15:53:22.187Z,0.70
2018-03-18T15:55:50.493Z,0.70
2018-03-18T15:58:19.021Z,0.70
2018-03-18T16:00:46.556Z,0.70
2018-03-18T16:03:14.123Z,0.60
2018-03-18T16:05:41.673Z,0.60
2018-03-18T16:08:09.228Z,0.50
2018-03-18T16:10:36.770Z,0.40
2018-03-18T16:13:04.328Z,0.30
2018-03-18T16:15:32.635Z,0.30
2018-03-18T16:18:01.239Z,0.20
2018-03-18T16:20:28.772Z,0.20
2018-03-18T16:22:56.324Z,0.10
2018-03-18T16:25:23.864Z,0.00
2018-03-18T16:27:51.416Z,-0.10
2018-03-18T16:30:31.181Z,-0.10
2018-03-18T16:32:58.764Z,-0.20
2018-03-18T16:35:26.314Z,-0.20
2018-03-18T16:37:53.865Z,-0.20
2018-03-18T16:40:22.190Z,-0.30
2018-03-18T16:42:50.500Z,-0.30
2018-03-18T16:45:18.827Z,-0.30
2018-03-18T16:47:46.379Z,-0.30
2018-03-18T16:50:13.945Z,-0.30
2018-03-18T16:52:41.526Z,-0.40
2018-03-18T16:55:09.088Z,-0.40
2018-03-18T16:57:37.405Z,-0.60
2018-03-18T17:00:05.736Z,-0.60
2018-03-18T17:02:33.278Z,-0.60
2018-03-18T17:05:00.825Z,-0.60
2018-03-18T17:07:28.365Z,-0.70
2018-03-18T17:09:56.680Z,-0.80
2018-03-18T17:12:24.251Z,-0.80
2018-03-18T17:14:52.573Z,-1.00
2018-03-18T17:17:20.118Z,-0.90
2018-03-18T17:19:47.701Z,-1.00
2018-03-18T17:22:15.231Z,-1.10
2018-03-18T17:24:42.792Z,-1.10
2018-03-18T17:27:11.105Z,-1.20
2018-03-18T17:29:39.433Z,-1.10
2018-03-18T17:32:06.968Z,-1.10
2018-03-18T17:34:34.528Z,-1.20
2018-03-18T17:37:02.127Z,-1.20
2018-03-18T17:39:29.658Z,-1.20
2018-03-18T17:41:57.216Z,-1.20
2018-03-18T17:44:36.874Z,-1.20
2018-03-18T17:47:16.350Z,-1.20
2018-03-18T17:49:55.707Z,-1.30
2018-03-18T17:52:34.860Z,-1.30
2018-03-18T17:55:10.085Z,-1.30
2018-03-18T17:57:37.655Z,-1.30
2018-03-18T18:00:05.193Z,-1.40
2018-03-18T18:02:32.797Z,-1.30
2018-03-18T18:05:00.344Z,-1.30
2018-03-18T18:07:27.909Z,-1.40
2018-03-18T18:09:55.444Z,-1.40
2018-03-18T18:12:23.011Z,-1.50
2018-03-18T18:14:50.555Z,-2.40
2018-03-18T18:17:18.126Z,-1.60
2018-03-18T18:19:45.669Z,-1.60
2018-03-18T18:22:13.224Z,-1.60
2018-03-18T18:24:40.766Z,-1.60
2018-03-18T18:27:09.093Z,-1.70
2018-03-18T18:29:36.636Z,-1.70
2018-03-18T18:32:04.205Z,-1.80
2018-03-18T18:34:31.747Z,-1.80
2018-03-18T18:36:59.301Z,-1.80
2018-03-18T18:39:27.608Z,-1.80
2018-03-18T18:41:55.924Z,-1.80
2018-03-18T18:44:23.462Z,-1.80
2018-03-18T18:46:51.045Z,-1.80
2018-03-18T18:49:18.601Z,-1.80
2018-03-18T18:51:46.190Z,-3.80
2018-03-18T18:54:13.757Z,-0.10
2018-03-18T18:56:41.297Z,-1.90
2018-03-18T18:59:09.661Z,-2.00
2018-03-18T19:01:37.216Z,-2.00
2018-03-18T19:04:05.546Z,-2.00
2018-03-18T19:06:33.089Z,-2.00
2018-03-18T19:09:01.436Z,-2.00
2018-03-18T19:11:28.979Z,-2.00
2018-03-18T19:13:56.589Z,-2.00
2018-03-18T19:16:24.898Z,-2.10
2018-03-18T19:18:53.225Z,-2.10
2018-03-18T19:21:20.790Z,-2.10
2018-03-18T19:23:48.349Z,-2.20
2018-03-18T19:26:15.909Z,-2.20
2018-03-18T19:28:43.469Z,-2.20
2018-03-18T19:31:11.786Z,-2.30
2018-03-18T19:33:39.369Z,-2.30
2018-03-18T19:36:07.672Z,-2.30
2018-03-18T19:38:36.009Z,-2.30
2018-03-18T19:41:03.581Z,-2.30
2018-03-18T19:43:31.343Z,-2.30
2018-03-18T19:45:58.941Z,-2.30
2018-03-18T19:48:26.601Z,-2.30
2018-03-18T19:50:54.140Z,-2.30
2018-03-18T19:53:21.761Z,-2.30
2018-03-18T19:55:49.300Z,-2.30
2018-03-18T19:58:16.873Z,-2.40
2018-03-18T20:00:44.445Z,-2.40
2018-03-18T20:03:20.077Z,-2.40
2018-03-18T20:05:49.591Z,-2.40
2018-03-18T20:08:20.963Z,-2.40
2018-03-18T20:10:48.985Z,-2.40
2018-03-18T20:13:16.525Z,-2.50
2018-03-18T20:15:44.083Z,-2.50
2018-03-18T20:18:11.793Z,-2.60
2018-03-18T20:20:39.352Z,-2.60
2018-03-18T20:23:11.900Z,-2.60
2018-03-18T20:25:40.167Z,-2.60
2018-03-18T20:28:07.771Z,-2.60
2018-03-18T20:30:36.166Z,-2.60
2018-03-18T20:33:03.715Z,-2.60
2018-03-18T20:35:31.292Z,-2.70
2018-03-18T20:37:59.300Z,-2.70
2018-03-18T20:40:26.917Z,-2.70
2018-03-18T20:42:54.490Z,-2.70
2018-03-18T20:45:22.816Z,-2.70
2018-03-18T20:47:50.361Z,-2.80
2018-03-18T20:50:17.918Z,-2.70
2018-03-18T20:52:45.467Z,-2.70
2018-03-18T20:55:13.062Z,-2.70
2018-03-18T20:57:40.596Z,-2.80
2018-03-18T21:00:08.144Z,-2.80
2018-03-18T21:02:35.704Z,-2.80
2018-03-18T21:05:03.277Z,-2.80
2018-03-18T21:07:38.380Z,-2.80
2018-03-18T21:10:06.165Z,-2.90
2018-03-18T21:12:33.700Z,-2.90
2018-03-18T21:15:01.304Z,-2.90
2018-03-18T21:17:28.941Z,-2.90
2018-03-18T21:19:56.540Z,-2.90
2018-03-18T21:22:24.127Z,-3.00
2018-03-18T21:24:51.685Z,-3.00
2018-03-18T21:27:20.022Z,-3.10
2018-03-18T21:29:47.583Z,-3.10
2018-03-18T21:32:15.255Z,-3.10
2018-03-18T21:34:42.829Z,-3.10
2018-03-18T21:37:10.681Z,-3.10
2018-03-18T21:39:38.262Z,-3.10
2018-03-18T21:42:06.650Z,-3.20
2018-03-18T21:44:34.259Z,-3.20
2018-03-18T21:47:02.582Z,-3.20
2018-03-18T21:49:30.158Z,-3.30
2018-03-18T21:51:57.762Z,-3.30
2018-03-18T21:54:26.074Z,-3.30
2018-03-18T21:56:53.634Z,-3.30
2018-03-18T21:59:21.946Z,-3.30
2018-03-18T22:01:50.266Z,-3.30
2018-03-18T22:04:17.840Z,-3.30
2018-03-18T22:06:45.403Z,-3.30
2018-03-18T22:09:13.713Z,-3.30
2018-03-18T22:11:42.041Z,-3.40
2018-03-18T22:14:09.585Z,-3.40
2018-03-18T22:16:37.170Z,-3.40
2018-03-18T22:19:04.704Z,-3.40
2018-03-18T22:21:32.261Z,-3.40
2018-03-18T22:24:00.569Z,-3.50
2018-03-18T22:26:28.125Z,-3.50
2018-03-18T22:28:55.704Z,-3.50
2018-03-18T22:31:23.264Z,-3.50
2018-03-18T22:33:50.811Z,-3.60
2018-03-18T22:36:18.361Z,-3.70
2018-03-18T22:38:45.920Z,-3.70
2018-03-18T22:41:13.472Z,-3.70
2018-03-18T22:43:41.032Z,-3.70
2018-03-18T22:46:09.341Z,-3.90
2018-03-18T22:48:36.920Z,-3.90
2018-03-18T22:51:04.469Z,-4.00
2018-03-18T22:53:32.026Z,-4.00
2018-03-18T22:55:59.573Z,-4.00
2018-03-18T22:58:27.905Z,-4.10
2018-03-18T23:00:55.437Z,-4.10
2018-03-18T23:03:23.001Z,-4.10
2018-03-18T23:05:50.553Z,-4.10
2018-03-18T23:08:18.125Z,-4.20
2018-03-18T23:10:45.669Z,-4.20
2018-03-18T23:13:13.286Z,-4.30
2018-03-18T23:15:41.605Z,-4.30
2018-03-18T23:18:09.169Z,-4.30
2018-03-18T23:20:36.711Z,-4.40
2018-03-18T23:23:04.278Z,-4.40
2018-03-18T23:25:31.825Z,-4.50
2018-03-18T23:27:59.442Z,-4.50
2018-03-18T23:30:26.990Z,-4.60
2018-03-18T23:32:54.549Z,-4.70
2018-03-18T23:35:22.094Z,-4.70
2018-03-18T23:37:49.656Z,-4.70
2018-03-18T23:40:17.973Z,-4.70
2018-03-18T23:42:46.312Z,-4.70
2018-03-18T23:45:13.862Z,-4.70
2018-03-18T23:47:42.205Z,-4.60
2018-03-18T23:50:09.749Z,-4.60
2018-03-18T23:52:38.060Z,-4.60
2018-03-18T23:55:05.629Z,-4.70
2018-03-18T23:57:33.962Z,-4.70
